sensor_id;sensor_type;location;lat;lon;timestamp;temperature;humidity
23715;DHT22;12036;50.858;4.472;2022-08-19T00:00:24;19.10;99.90
23715;DHT22;12036;50.858;4.472;2022-08-19T00:02:49;19.10;99.90
23715;DHT22;12036;50.858;4.472;2022-08-19T00:05:15;19.10;99.90
23715;DHT22;12036;50.858;4.472;2022-08-19T00:07:42;19.10;99.90
23715;DHT22;12036;50.858;4.472;2022-08-19T00:10:09;19.00;99.90
23715;DHT22;12036;50.858;4.472;2022-08-19T00:12:35;19.00;99.90
23715;DHT22;12036;50.858;4.472;2022-08-19T00:15:01;19.10;99.90
23715;DHT22;12036;50.858;4.472;2022-08-19T00:17:27;19.10;99.90
23715;DHT22;12036;50.858;4.472;2022-08-19T00:19:52;19.10;99.90
23715;DHT22;12036;50.858;4.472;2022-08-19T00:22:18;19.10;99.90
23715;DHT22;12036;50.858;4.472;2022-08-19T00:24:46;19.20;99.90
23715;DHT22;12036;50.858;4.472;2022-08-19T00:27:13;19.30;99.90
23715;DHT22;12036;50.858;4.472;2022-08-19T00:29:39;19.50;99.90
23715;DHT22;12036;50.858;4.472;2022-08-19T00:32:05;19.60;99.90
23715;DHT22;12036;50.858;4.472;2022-08-19T00:34:30;19.70;99.90
23715;DHT22;12036;50.858;4.472;2022-08-19T00:36:57;19.80;99.90
23715;DHT22;12036;50.858;4.472;2022-08-19T00:39:23;19.80;99.90
23715;DHT22;12036;50.858;4.472;2022-08-19T00:41:49;19.80;99.90
23715;DHT22;12036;50.858;4.472;2022-08-19T00:44:17;19.80;99.90
23715;DHT22;12036;50.858;4.472;2022-08-19T00:46:46;19.80;99.90
23715;DHT22;12036;50.858;4.472;2022-08-19T00:52:11;19.90;99.90
23715;DHT22;12036;50.858;4.472;2022-08-19T00:54:39;19.80;99.90
23715;DHT22;12036;50.858;4.472;2022-08-19T00:57:12;19.90;99.90
23715;DHT22;12036;50.858;4.472;2022-08-19T00:59:41;20.00;99.90
23715;DHT22;12036;50.858;4.472;2022-08-19T01:02:07;20.00;99.90
23715;DHT22;12036;50.858;4.472;2022-08-19T01:04:33;20.00;99.90
23715;DHT22;12036;50.858;4.472;2022-08-19T01:06:59;20.00;99.90
23715;DHT22;12036;50.858;4.472;2022-08-19T01:09:27;20.00;99.90
23715;DHT22;12036;50.858;4.472;2022-08-19T01:11:52;20.00;99.90
23715;DHT22;12036;50.858;4.472;2022-08-19T01:14:18;20.00;99.90
23715;DHT22;12036;50.858;4.472;2022-08-19T01:16:45;20.00;99.90
23715;DHT22;12036;50.858;4.472;2022-08-19T01:19:31;19.90;99.90
23715;DHT22;12036;50.858;4.472;2022-08-19T01:24:50;19.90;99.90
23715;DHT22;12036;50.858;4.472;2022-08-19T01:27:16;19.90;99.90
23715;DHT22;12036;50.858;4.472;2022-08-19T01:29:43;19.90;99.90
23715;DHT22;12036;50.858;4.472;2022-08-19T01:32:13;19.90;99.90
23715;DHT22;12036;50.858;4.472;2022-08-19T01:34:39;19.90;99.90
23715;DHT22;12036;50.858;4.472;2022-08-19T01:37:09;19.90;99.90
23715;DHT22;12036;50.858;4.472;2022-08-19T01:39:37;19.90;99.90
23715;DHT22;12036;50.858;4.472;2022-08-19T01:42:03;19.90;99.90
23715;DHT22;12036;50.858;4.472;2022-08-19T01:44:29;19.80;99.90
23715;DHT22;12036;50.858;4.472;2022-08-19T01:46:55;19.80;99.90
23715;DHT22;12036;50.858;4.472;2022-08-19T01:49:23;19.80;99.90
23715;DHT22;12036;50.858;4.472;2022-08-19T01:51:51;19.80;99.90
23715;DHT22;12036;50.858;4.472;2022-08-19T01:54:17;19.80;99.90
23715;DHT22;12036;50.858;4.472;2022-08-19T01:56:43;19.70;99.90
23715;DHT22;12036;50.858;4.472;2022-08-19T01:59:13;19.70;99.90
23715;DHT22;12036;50.858;4.472;2022-08-19T02:01:39;19.70;99.90
23715;DHT22;12036;50.858;4.472;2022-08-19T02:04:05;19.70;99.90
23715;DHT22;12036;50.858;4.472;2022-08-19T02:06:31;19.70;99.90
23715;DHT22;12036;50.858;4.472;2022-08-19T02:08:57;19.60;99.90
23715;DHT22;12036;50.858;4.472;2022-08-19T02:11:29;19.50;99.90
23715;DHT22;12036;50.858;4.472;2022-08-19T02:13:58;19.50;99.90
23715;DHT22;12036;50.858;4.472;2022-08-19T02:16:24;19.50;99.90
23715;DHT22;12036;50.858;4.472;2022-08-19T02:18:50;19.50;99.90
23715;DHT22;12036;50.858;4.472;2022-08-19T02:21:21;19.50;99.90
23715;DHT22;12036;50.858;4.472;2022-08-19T02:23:48;19.40;99.90
23715;DHT22;12036;50.858;4.472;2022-08-19T02:26:14;19.40;99.90
23715;DHT22;12036;50.858;4.472;2022-08-19T02:28:41;19.40;99.90
23715;DHT22;12036;50.858;4.472;2022-08-19T02:31:13;19.40;99.90
23715;DHT22;12036;50.858;4.472;2022-08-19T02:33:40;19.40;99.90
23715;DHT22;12036;50.858;4.472;2022-08-19T02:36:07;19.40;99.90
23715;DHT22;12036;50.858;4.472;2022-08-19T02:38:34;19.30;99.90
23715;DHT22;12036;50.858;4.472;2022-08-19T02:41:14;19.30;99.90
23715;DHT22;12036;50.858;4.472;2022-08-19T02:43:40;19.30;99.90
23715;DHT22;12036;50.858;4.472;2022-08-19T02:46:18;19.20;99.90
23715;DHT22;12036;50.858;4.472;2022-08-19T02:48:50;19.20;99.90
23715;DHT22;12036;50.858;4.472;2022-08-19T02:51:22;19.20;99.90
23715;DHT22;12036;50.858;4.472;2022-08-19T02:53:48;19.10;99.90
23715;DHT22;12036;50.858;4.472;2022-08-19T02:56:14;19.10;99.90
23715;DHT22;12036;50.858;4.472;2022-08-19T02:58:40;19.00;99.90
23715;DHT22;12036;50.858;4.472;2022-08-19T03:01:06;19.00;99.90
23715;DHT22;12036;50.858;4.472;2022-08-19T03:03:32;19.00;99.90
23715;DHT22;12036;50.858;4.472;2022-08-19T03:06:12;19.00;99.90
23715;DHT22;12036;50.858;4.472;2022-08-19T03:08:40;19.00;99.90
23715;DHT22;12036;50.858;4.472;2022-08-19T03:11:15;18.90;99.90
23715;DHT22;12036;50.858;4.472;2022-08-19T03:13:41;19.00;99.90
23715;DHT22;12036;50.858;4.472;2022-08-19T03:16:08;18.90;99.90
23715;DHT22;12036;50.858;4.472;2022-08-19T03:18:34;18.90;99.90
23715;DHT22;12036;50.858;4.472;2022-08-19T03:21:00;18.90;99.90
23715;DHT22;12036;50.858;4.472;2022-08-19T03:23:26;18.90;99.90
23715;DHT22;12036;50.858;4.472;2022-08-19T03:25:52;18.80;99.90
23715;DHT22;12036;50.858;4.472;2022-08-19T03:28:20;18.80;99.90
23715;DHT22;12036;50.858;4.472;2022-08-19T03:31:04;18.80;99.90
23715;DHT22;12036;50.858;4.472;2022-08-19T03:33:33;18.80;99.90
23715;DHT22;12036;50.858;4.472;2022-08-19T03:36:14;18.80;99.90
23715;DHT22;12036;50.858;4.472;2022-08-19T03:38:45;18.80;99.90
23715;DHT22;12036;50.858;4.472;2022-08-19T03:41:14;18.70;99.90
23715;DHT22;12036;50.858;4.472;2022-08-19T03:43:42;18.70;99.90
23715;DHT22;12036;50.858;4.472;2022-08-19T03:46:13;18.60;99.90
23715;DHT22;12036;50.858;4.472;2022-08-19T03:48:40;18.60;99.90
23715;DHT22;12036;50.858;4.472;2022-08-19T03:51:06;18.60;99.90
23715;DHT22;12036;50.858;4.472;2022-08-19T03:53:33;18.60;99.90
23715;DHT22;12036;50.858;4.472;2022-08-19T03:56:00;18.60;99.90
23715;DHT22;12036;50.858;4.472;2022-08-19T03:58:27;18.60;99.90
23715;DHT22;12036;50.858;4.472;2022-08-19T04:00:58;18.50;99.90
23715;DHT22;12036;50.858;4.472;2022-08-19T04:03:24;18.50;99.90
23715;DHT22;12036;50.858;4.472;2022-08-19T04:05:52;18.50;99.90
23715;DHT22;12036;50.858;4.472;2022-08-19T04:08:19;18.50;99.90
23715;DHT22;12036;50.858;4.472;2022-08-19T04:10:48;18.40;99.90
23715;DHT22;12036;50.858;4.472;2022-08-19T04:13:15;18.40;99.90
23715;DHT22;12036;50.858;4.472;2022-08-19T04:15:43;18.30;99.90
23715;DHT22;12036;50.858;4.472;2022-08-19T04:18:10;18.30;99.90
23715;DHT22;12036;50.858;4.472;2022-08-19T04:20:41;18.30;99.90
23715;DHT22;12036;50.858;4.472;2022-08-19T04:23:06;18.30;99.90
23715;DHT22;12036;50.858;4.472;2022-08-19T04:25:41;18.30;99.90
23715;DHT22;12036;50.858;4.472;2022-08-19T04:28:08;18.20;99.90
23715;DHT22;12036;50.858;4.472;2022-08-19T04:30:47;18.20;99.90
23715;DHT22;12036;50.858;4.472;2022-08-19T04:33:14;18.10;99.90
23715;DHT22;12036;50.858;4.472;2022-08-19T04:35:45;18.10;99.90
23715;DHT22;12036;50.858;4.472;2022-08-19T04:38:13;18.10;99.90
23715;DHT22;12036;50.858;4.472;2022-08-19T04:40:47;18.10;99.90
23715;DHT22;12036;50.858;4.472;2022-08-19T04:43:32;18.00;99.90
23715;DHT22;12036;50.858;4.472;2022-08-19T04:45:58;18.00;99.90
23715;DHT22;12036;50.858;4.472;2022-08-19T04:48:24;18.00;99.90
23715;DHT22;12036;50.858;4.472;2022-08-19T04:50:53;18.00;99.90
23715;DHT22;12036;50.858;4.472;2022-08-19T04:53:25;17.90;99.90
23715;DHT22;12036;50.858;4.472;2022-08-19T04:55:55;17.90;99.90
23715;DHT22;12036;50.858;4.472;2022-08-19T04:58:23;17.90;99.90
23715;DHT22;12036;50.858;4.472;2022-08-19T05:00:50;17.90;99.90
23715;DHT22;12036;50.858;4.472;2022-08-19T05:03:16;17.90;99.90
23715;DHT22;12036;50.858;4.472;2022-08-19T05:05:43;17.90;99.90
23715;DHT22;12036;50.858;4.472;2022-08-19T05:08:10;17.80;99.90
23715;DHT22;12036;50.858;4.472;2022-08-19T05:10:37;17.80;99.90
23715;DHT22;12036;50.858;4.472;2022-08-19T05:13:04;17.80;99.90
23715;DHT22;12036;50.858;4.472;2022-08-19T05:15:30;17.80;99.90
23715;DHT22;12036;50.858;4.472;2022-08-19T05:17:56;17.90;99.90
23715;DHT22;12036;50.858;4.472;2022-08-19T05:20:40;17.90;99.90
23715;DHT22;12036;50.858;4.472;2022-08-19T05:23:24;17.90;99.90
23715;DHT22;12036;50.858;4.472;2022-08-19T05:25:51;17.90;99.90
23715;DHT22;12036;50.858;4.472;2022-08-19T05:28:17;18.00;99.90
23715;DHT22;12036;50.858;4.472;2022-08-19T05:30:44;18.00;99.90
23715;DHT22;12036;50.858;4.472;2022-08-19T05:33:11;18.10;99.90
23715;DHT22;12036;50.858;4.472;2022-08-19T05:35:38;18.10;99.90
23715;DHT22;12036;50.858;4.472;2022-08-19T05:38:05;18.10;99.90
23715;DHT22;12036;50.858;4.472;2022-08-19T05:40:34;18.20;99.90
23715;DHT22;12036;50.858;4.472;2022-08-19T05:43:02;18.40;99.90
23715;DHT22;12036;50.858;4.472;2022-08-19T05:45:29;18.60;99.90
23715;DHT22;12036;50.858;4.472;2022-08-19T05:47:54;19.00;99.90
23715;DHT22;12036;50.858;4.472;2022-08-19T05:50:20;19.00;99.90
23715;DHT22;12036;50.858;4.472;2022-08-19T05:52:46;19.30;99.90
23715;DHT22;12036;50.858;4.472;2022-08-19T05:55:12;19.90;99.90
23715;DHT22;12036;50.858;4.472;2022-08-19T05:57:39;20.50;99.90
23715;DHT22;12036;50.858;4.472;2022-08-19T06:00:05;21.10;99.90
23715;DHT22;12036;50.858;4.472;2022-08-19T06:02:35;21.20;99.90
23715;DHT22;12036;50.858;4.472;2022-08-19T06:05:03;21.10;99.90
23715;DHT22;12036;50.858;4.472;2022-08-19T06:07:28;21.10;99.90
23715;DHT22;12036;50.858;4.472;2022-08-19T06:09:55;21.30;99.90
23715;DHT22;12036;50.858;4.472;2022-08-19T06:12:20;21.50;99.90
23715;DHT22;12036;50.858;4.472;2022-08-19T06:14:55;21.20;99.90
23715;DHT22;12036;50.858;4.472;2022-08-19T06:17:21;20.90;99.90
23715;DHT22;12036;50.858;4.472;2022-08-19T06:19:50;20.70;99.90
23715;DHT22;12036;50.858;4.472;2022-08-19T06:22:15;20.70;99.90
23715;DHT22;12036;50.858;4.472;2022-08-19T06:24:41;21.00;99.90
23715;DHT22;12036;50.858;4.472;2022-08-19T06:27:07;21.50;99.90
23715;DHT22;12036;50.858;4.472;2022-08-19T06:29:33;21.90;99.90
23715;DHT22;12036;50.858;4.472;2022-08-19T06:32:02;22.30;99.90
23715;DHT22;12036;50.858;4.472;2022-08-19T06:34:31;22.20;99.90
23715;DHT22;12036;50.858;4.472;2022-08-19T06:36:59;21.80;99.90
23715;DHT22;12036;50.858;4.472;2022-08-19T06:39:28;21.40;99.90
23715;DHT22;12036;50.858;4.472;2022-08-19T06:41:59;21.20;99.90
23715;DHT22;12036;50.858;4.472;2022-08-19T06:44:27;21.20;99.90
23715;DHT22;12036;50.858;4.472;2022-08-19T06:46:54;21.50;99.90
23715;DHT22;12036;50.858;4.472;2022-08-19T06:49:21;22.30;99.90
23715;DHT22;12036;50.858;4.472;2022-08-19T06:51:48;22.90;99.90
23715;DHT22;12036;50.858;4.472;2022-08-19T06:54:18;23.20;99.30
23715;DHT22;12036;50.858;4.472;2022-08-19T06:56:43;23.30;99.00
23715;DHT22;12036;50.858;4.472;2022-08-19T06:59:21;23.60;99.00
23715;DHT22;12036;50.858;4.472;2022-08-19T07:01:52;23.80;98.30
23715;DHT22;12036;50.858;4.472;2022-08-19T07:04:22;23.70;98.30
23715;DHT22;12036;50.858;4.472;2022-08-19T07:06:49;23.70;97.90
23715;DHT22;12036;50.858;4.472;2022-08-19T07:09:17;23.50;98.00
23715;DHT22;12036;50.858;4.472;2022-08-19T07:11:48;23.40;98.20
23715;DHT22;12036;50.858;4.472;2022-08-19T07:14:15;23.50;98.60
23715;DHT22;12036;50.858;4.472;2022-08-19T07:16:43;23.40;98.00
23715;DHT22;12036;50.858;4.472;2022-08-19T07:19:11;23.20;98.50
23715;DHT22;12036;50.858;4.472;2022-08-19T07:21:37;22.90;99.20
23715;DHT22;12036;50.858;4.472;2022-08-19T07:24:04;22.70;99.80
23715;DHT22;12036;50.858;4.472;2022-08-19T07:26:33;22.40;99.90
23715;DHT22;12036;50.858;4.472;2022-08-19T07:29:04;22.20;99.90
23715;DHT22;12036;50.858;4.472;2022-08-19T07:31:30;21.80;99.90
23715;DHT22;12036;50.858;4.472;2022-08-19T07:33:56;21.60;99.90
23715;DHT22;12036;50.858;4.472;2022-08-19T07:36:27;21.80;99.90
23715;DHT22;12036;50.858;4.472;2022-08-19T07:38:59;21.70;99.90
23715;DHT22;12036;50.858;4.472;2022-08-19T07:41:27;21.80;99.90
23715;DHT22;12036;50.858;4.472;2022-08-19T07:43:54;21.70;99.90
23715;DHT22;12036;50.858;4.472;2022-08-19T07:46:20;21.50;99.90
23715;DHT22;12036;50.858;4.472;2022-08-19T07:48:48;21.40;99.90
23715;DHT22;12036;50.858;4.472;2022-08-19T07:51:19;21.40;99.90
23715;DHT22;12036;50.858;4.472;2022-08-19T07:53:47;21.50;99.90
23715;DHT22;12036;50.858;4.472;2022-08-19T07:56:13;21.60;99.90
23715;DHT22;12036;50.858;4.472;2022-08-19T07:58:43;21.60;99.90
23715;DHT22;12036;50.858;4.472;2022-08-19T08:01:12;21.60;99.90
23715;DHT22;12036;50.858;4.472;2022-08-19T08:03:38;21.60;99.90
23715;DHT22;12036;50.858;4.472;2022-08-19T08:06:23;21.50;99.90
23715;DHT22;12036;50.858;4.472;2022-08-19T08:09:07;21.60;99.90
23715;DHT22;12036;50.858;4.472;2022-08-19T08:11:40;21.90;99.90
23715;DHT22;12036;50.858;4.472;2022-08-19T08:14:07;22.20;99.90
23715;DHT22;12036;50.858;4.472;2022-08-19T08:16:36;22.30;99.90
23715;DHT22;12036;50.858;4.472;2022-08-19T08:19:05;22.20;99.90
23715;DHT22;12036;50.858;4.472;2022-08-19T08:21:32;22.30;99.90
23715;DHT22;12036;50.858;4.472;2022-08-19T08:23:58;22.20;99.90
23715;DHT22;12036;50.858;4.472;2022-08-19T08:26:24;22.10;99.90
23715;DHT22;12036;50.858;4.472;2022-08-19T08:28:50;22.20;99.90
23715;DHT22;12036;50.858;4.472;2022-08-19T08:31:16;22.20;99.90
23715;DHT22;12036;50.858;4.472;2022-08-19T08:33:43;22.40;99.90
23715;DHT22;12036;50.858;4.472;2022-08-19T08:36:10;22.50;99.90
23715;DHT22;12036;50.858;4.472;2022-08-19T08:38:37;22.60;99.90
23715;DHT22;12036;50.858;4.472;2022-08-19T08:43:50;22.60;99.90
23715;DHT22;12036;50.858;4.472;2022-08-19T08:51:48;22.20;99.90
23715;DHT22;12036;50.858;4.472;2022-08-19T08:54:20;22.10;99.90
23715;DHT22;12036;50.858;4.472;2022-08-19T08:56:49;22.00;99.90
23715;DHT22;12036;50.858;4.472;2022-08-19T08:59:23;22.00;99.90
23715;DHT22;12036;50.858;4.472;2022-08-19T09:01:51;22.10;99.90
23715;DHT22;12036;50.858;4.472;2022-08-19T09:04:17;22.20;99.90
23715;DHT22;12036;50.858;4.472;2022-08-19T09:07:09;22.30;99.90
23715;DHT22;12036;50.858;4.472;2022-08-19T09:09:47;22.40;99.90
23715;DHT22;12036;50.858;4.472;2022-08-19T09:15:09;22.40;99.90
23715;DHT22;12036;50.858;4.472;2022-08-19T09:17:36;22.30;99.90
23715;DHT22;12036;50.858;4.472;2022-08-19T09:22:34;22.20;99.90
23715;DHT22;12036;50.858;4.472;2022-08-19T09:25:01;22.20;99.90
23715;DHT22;12036;50.858;4.472;2022-08-19T09:27:27;22.30;99.90
23715;DHT22;12036;50.858;4.472;2022-08-19T09:29:54;22.40;99.90
23715;DHT22;12036;50.858;4.472;2022-08-19T09:32:21;22.30;99.90
23715;DHT22;12036;50.858;4.472;2022-08-19T09:34:47;22.40;99.90
23715;DHT22;12036;50.858;4.472;2022-08-19T09:37:12;22.40;99.90
23715;DHT22;12036;50.858;4.472;2022-08-19T09:39:39;22.40;99.90
23715;DHT22;12036;50.858;4.472;2022-08-19T09:42:06;22.40;99.90
23715;DHT22;12036;50.858;4.472;2022-08-19T09:44:37;22.60;99.90
23715;DHT22;12036;50.858;4.472;2022-08-19T09:47:03;22.80;99.90
23715;DHT22;12036;50.858;4.472;2022-08-19T09:49:30;22.80;99.90
23715;DHT22;12036;50.858;4.472;2022-08-19T09:51:56;22.80;99.90
23715;DHT22;12036;50.858;4.472;2022-08-19T09:54:23;22.90;99.90
23715;DHT22;12036;50.858;4.472;2022-08-19T09:56:49;22.90;99.90
23715;DHT22;12036;50.858;4.472;2022-08-19T09:59:15;22.90;99.90
23715;DHT22;12036;50.858;4.472;2022-08-19T10:01:41;23.00;99.90
23715;DHT22;12036;50.858;4.472;2022-08-19T10:04:06;22.90;99.90
23715;DHT22;12036;50.858;4.472;2022-08-19T10:06:37;23.00;99.90
23715;DHT22;12036;50.858;4.472;2022-08-19T10:09:06;23.10;99.90
23715;DHT22;12036;50.858;4.472;2022-08-19T10:11:34;23.10;99.90
23715;DHT22;12036;50.858;4.472;2022-08-19T10:14:01;23.20;99.90
23715;DHT22;12036;50.858;4.472;2022-08-19T10:16:27;23.40;99.90
23715;DHT22;12036;50.858;4.472;2022-08-19T10:18:53;23.30;99.90
23715;DHT22;12036;50.858;4.472;2022-08-19T10:21:23;23.40;99.90
23715;DHT22;12036;50.858;4.472;2022-08-19T10:23:52;23.50;99.90
23715;DHT22;12036;50.858;4.472;2022-08-19T10:26:24;23.50;99.90
23715;DHT22;12036;50.858;4.472;2022-08-19T10:28:50;23.60;99.90
23715;DHT22;12036;50.858;4.472;2022-08-19T10:31:19;23.60;99.90
23715;DHT22;12036;50.858;4.472;2022-08-19T10:33:46;23.60;99.90
23715;DHT22;12036;50.858;4.472;2022-08-19T10:36:19;23.50;99.90
23715;DHT22;12036;50.858;4.472;2022-08-19T10:38:47;23.60;99.90
23715;DHT22;12036;50.858;4.472;2022-08-19T10:41:20;23.60;99.90
23715;DHT22;12036;50.858;4.472;2022-08-19T10:43:47;23.60;99.90
23715;DHT22;12036;50.858;4.472;2022-08-19T10:46:16;23.80;99.90
23715;DHT22;12036;50.858;4.472;2022-08-19T10:48:42;23.90;99.90
23715;DHT22;12036;50.858;4.472;2022-08-19T10:51:09;24.10;99.90
23715;DHT22;12036;50.858;4.472;2022-08-19T10:53:54;24.20;99.90
23715;DHT22;12036;50.858;4.472;2022-08-19T10:56:21;24.20;99.90
23715;DHT22;12036;50.858;4.472;2022-08-19T10:59:05;24.20;99.90
23715;DHT22;12036;50.858;4.472;2022-08-19T11:01:31;24.20;99.90
23715;DHT22;12036;50.858;4.472;2022-08-19T11:03:59;24.30;99.90
23715;DHT22;12036;50.858;4.472;2022-08-19T11:06:25;24.30;99.90
23715;DHT22;12036;50.858;4.472;2022-08-19T11:08:52;24.10;99.90
23715;DHT22;12036;50.858;4.472;2022-08-19T11:11:18;24.10;99.90
23715;DHT22;12036;50.858;4.472;2022-08-19T11:13:44;24.10;99.90
23715;DHT22;12036;50.858;4.472;2022-08-19T11:16:16;23.90;99.90
23715;DHT22;12036;50.858;4.472;2022-08-19T11:18:44;23.90;99.90
23715;DHT22;12036;50.858;4.472;2022-08-19T11:23:46;24.00;99.90
23715;DHT22;12036;50.858;4.472;2022-08-19T11:26:13;23.90;99.90
23715;DHT22;12036;50.858;4.472;2022-08-19T11:28:39;23.80;99.90
23715;DHT22;12036;50.858;4.472;2022-08-19T11:31:13;23.60;99.90
23715;DHT22;12036;50.858;4.472;2022-08-19T11:33:39;23.50;99.90
23715;DHT22;12036;50.858;4.472;2022-08-19T11:36:05;23.50;99.90
23715;DHT22;12036;50.858;4.472;2022-08-19T11:38:31;23.50;99.90
23715;DHT22;12036;50.858;4.472;2022-08-19T11:40:59;23.60;99.90
23715;DHT22;12036;50.858;4.472;2022-08-19T11:43:25;23.70;99.90
23715;DHT22;12036;50.858;4.472;2022-08-19T11:45:53;23.70;99.90
23715;DHT22;12036;50.858;4.472;2022-08-19T11:48:19;23.60;99.90
23715;DHT22;12036;50.858;4.472;2022-08-19T11:50:50;23.40;99.90
23715;DHT22;12036;50.858;4.472;2022-08-19T11:53:19;23.30;99.90
23715;DHT22;12036;50.858;4.472;2022-08-19T11:55:46;23.30;99.90
23715;DHT22;12036;50.858;4.472;2022-08-19T11:58:13;23.20;99.90
23715;DHT22;12036;50.858;4.472;2022-08-19T12:00:40;23.20;99.90
23715;DHT22;12036;50.858;4.472;2022-08-19T12:03:06;23.40;99.90
23715;DHT22;12036;50.858;4.472;2022-08-19T12:05:32;23.60;99.90
23715;DHT22;12036;50.858;4.472;2022-08-19T12:07:57;23.80;99.90
23715;DHT22;12036;50.858;4.472;2022-08-19T12:10:24;23.80;99.90
23715;DHT22;12036;50.858;4.472;2022-08-19T12:12:50;24.00;99.90
23715;DHT22;12036;50.858;4.472;2022-08-19T12:15:15;24.00;99.90
23715;DHT22;12036;50.858;4.472;2022-08-19T12:17:42;24.10;99.90
23715;DHT22;12036;50.858;4.472;2022-08-19T12:20:10;24.60;99.90
23715;DHT22;12036;50.858;4.472;2022-08-19T12:22:37;25.00;99.90
23715;DHT22;12036;50.858;4.472;2022-08-19T12:25:04;25.40;99.50
23715;DHT22;12036;50.858;4.472;2022-08-19T12:27:30;25.50;98.40
23715;DHT22;12036;50.858;4.472;2022-08-19T12:29:56;25.60;97.80
23715;DHT22;12036;50.858;4.472;2022-08-19T12:32:23;25.80;97.40
23715;DHT22;12036;50.858;4.472;2022-08-19T12:34:50;26.00;97.00
23715;DHT22;12036;50.858;4.472;2022-08-19T12:37:15;26.20;96.70
23715;DHT22;12036;50.858;4.472;2022-08-19T12:39:43;26.40;96.10
23715;DHT22;12036;50.858;4.472;2022-08-19T12:42:10;26.40;95.30
23715;DHT22;12036;50.858;4.472;2022-08-19T12:44:38;26.20;95.30
23715;DHT22;12036;50.858;4.472;2022-08-19T12:47:05;26.10;96.00
23715;DHT22;12036;50.858;4.472;2022-08-19T12:49:32;26.10;95.90
23715;DHT22;12036;50.858;4.472;2022-08-19T12:52:00;26.20;95.80
23715;DHT22;12036;50.858;4.472;2022-08-19T12:54:26;26.20;95.60
23715;DHT22;12036;50.858;4.472;2022-08-19T12:56:52;26.10;95.60
23715;DHT22;12036;50.858;4.472;2022-08-19T12:59:17;26.00;95.40
23715;DHT22;12036;50.858;4.472;2022-08-19T13:01:44;26.00;95.70
23715;DHT22;12036;50.858;4.472;2022-08-19T13:04:10;26.10;95.70
23715;DHT22;12036;50.858;4.472;2022-08-19T13:06:36;26.20;95.70
23715;DHT22;12036;50.858;4.472;2022-08-19T13:09:03;26.40;95.30
23715;DHT22;12036;50.858;4.472;2022-08-19T13:11:29;26.60;94.40
23715;DHT22;12036;50.858;4.472;2022-08-19T13:13:58;26.50;94.40
23715;DHT22;12036;50.858;4.472;2022-08-19T13:16:24;26.50;94.00
23715;DHT22;12036;50.858;4.472;2022-08-19T13:18:51;26.30;94.20
23715;DHT22;12036;50.858;4.472;2022-08-19T13:21:18;26.20;94.80
23715;DHT22;12036;50.858;4.472;2022-08-19T13:23:45;26.20;94.70
23715;DHT22;12036;50.858;4.472;2022-08-19T13:26:11;26.30;95.00
23715;DHT22;12036;50.858;4.472;2022-08-19T13:28:39;26.70;94.40
23715;DHT22;12036;50.858;4.472;2022-08-19T13:31:24;26.90;93.70
23715;DHT22;12036;50.858;4.472;2022-08-19T13:34:09;27.10;94.20
23715;DHT22;12036;50.858;4.472;2022-08-19T13:36:36;27.60;93.00
23715;DHT22;12036;50.858;4.472;2022-08-19T13:39:03;27.70;91.80
23715;DHT22;12036;50.858;4.472;2022-08-19T13:41:29;27.70;91.70
23715;DHT22;12036;50.858;4.472;2022-08-19T13:43:55;27.50;91.80
23715;DHT22;12036;50.858;4.472;2022-08-19T13:46:21;27.50;92.00
23715;DHT22;12036;50.858;4.472;2022-08-19T13:48:47;27.50;91.70
23715;DHT22;12036;50.858;4.472;2022-08-19T13:51:17;27.30;91.90
23715;DHT22;12036;50.858;4.472;2022-08-19T13:53:43;27.10;92.10
23715;DHT22;12036;50.858;4.472;2022-08-19T13:56:14;27.10;92.30
23715;DHT22;12036;50.858;4.472;2022-08-19T13:58:40;27.20;92.10
23715;DHT22;12036;50.858;4.472;2022-08-19T14:01:07;27.40;91.90
23715;DHT22;12036;50.858;4.472;2022-08-19T14:03:34;27.50;91.20
23715;DHT22;12036;50.858;4.472;2022-08-19T14:06:00;27.50;91.20
23715;DHT22;12036;50.858;4.472;2022-08-19T14:08:26;27.20;91.30
23715;DHT22;12036;50.858;4.472;2022-08-19T14:10:54;27.20;91.50
23715;DHT22;12036;50.858;4.472;2022-08-19T14:13:21;27.10;91.30
23715;DHT22;12036;50.858;4.472;2022-08-19T14:15:48;27.00;91.30
23715;DHT22;12036;50.858;4.472;2022-08-19T14:18:15;26.70;91.60
23715;DHT22;12036;50.858;4.472;2022-08-19T14:20:41;26.50;92.10
23715;DHT22;12036;50.858;4.472;2022-08-19T14:23:07;26.40;92.20
23715;DHT22;12036;50.858;4.472;2022-08-19T14:25:33;26.20;92.50
23715;DHT22;12036;50.858;4.472;2022-08-19T14:27:59;25.90;93.50
23715;DHT22;12036;50.858;4.472;2022-08-19T14:30:28;25.50;94.80
23715;DHT22;12036;50.858;4.472;2022-08-19T14:32:55;25.40;95.40
23715;DHT22;12036;50.858;4.472;2022-08-19T14:35:22;25.10;97.00
23715;DHT22;12036;50.858;4.472;2022-08-19T14:37:49;24.70;98.70
23715;DHT22;12036;50.858;4.472;2022-08-19T14:40:17;24.50;99.60
23715;DHT22;12036;50.858;4.472;2022-08-19T14:42:58;24.30;99.90
23715;DHT22;12036;50.858;4.472;2022-08-19T14:45:30;24.10;99.90
23715;DHT22;12036;50.858;4.472;2022-08-19T14:47:56;24.20;99.90
23715;DHT22;12036;50.858;4.472;2022-08-19T14:50:23;24.30;99.90
23715;DHT22;12036;50.858;4.472;2022-08-19T14:52:48;24.30;99.90
23715;DHT22;12036;50.858;4.472;2022-08-19T14:55:16;24.30;99.90
23715;DHT22;12036;50.858;4.472;2022-08-19T14:57:42;24.30;99.90
23715;DHT22;12036;50.858;4.472;2022-08-19T15:00:10;24.20;99.90
23715;DHT22;12036;50.858;4.472;2022-08-19T15:02:39;24.20;99.90
23715;DHT22;12036;50.858;4.472;2022-08-19T15:05:05;24.00;99.90
23715;DHT22;12036;50.858;4.472;2022-08-19T15:07:31;23.80;99.90
23715;DHT22;12036;50.858;4.472;2022-08-19T15:09:58;23.50;99.90
23715;DHT22;12036;50.858;4.472;2022-08-19T15:12:24;23.40;99.90
23715;DHT22;12036;50.858;4.472;2022-08-19T15:14:50;23.20;99.90
23715;DHT22;12036;50.858;4.472;2022-08-19T15:17:17;23.30;99.90
23715;DHT22;12036;50.858;4.472;2022-08-19T15:19:44;23.30;99.90
23715;DHT22;12036;50.858;4.472;2022-08-19T15:22:11;23.20;99.90
23715;DHT22;12036;50.858;4.472;2022-08-19T15:24:36;23.10;99.90
23715;DHT22;12036;50.858;4.472;2022-08-19T15:27:03;23.10;99.90
23715;DHT22;12036;50.858;4.472;2022-08-19T15:29:30;23.20;99.90
23715;DHT22;12036;50.858;4.472;2022-08-19T15:31:57;23.40;99.90
23715;DHT22;12036;50.858;4.472;2022-08-19T15:34:24;23.60;99.90
23715;DHT22;12036;50.858;4.472;2022-08-19T15:36:54;23.70;99.90
23715;DHT22;12036;50.858;4.472;2022-08-19T15:39:19;23.70;99.90
23715;DHT22;12036;50.858;4.472;2022-08-19T15:41:46;23.90;99.90
23715;DHT22;12036;50.858;4.472;2022-08-19T15:44:14;24.00;99.90
23715;DHT22;12036;50.858;4.472;2022-08-19T15:46:41;24.00;99.90
23715;DHT22;12036;50.858;4.472;2022-08-19T15:49:10;24.00;99.90
23715;DHT22;12036;50.858;4.472;2022-08-19T15:51:37;24.00;99.90
23715;DHT22;12036;50.858;4.472;2022-08-19T15:54:05;24.00;99.90
23715;DHT22;12036;50.858;4.472;2022-08-19T15:56:31;24.00;99.90